Time;durP1;ratioP1;P1;durP2;ratioP2;P2;SDS_P1;SDS_P2;PMS_P1;PMS_P2;Temp;Humidity;BMP_temperature;BMP_pressure;BME280_temperature;BME280_humidity;BME280_pressure;Samples;Min_cycle;Max_cycle;Signal;HPM_P1;HPM_P2
2021/03/29 00:01:50;;;;;;;0.90;0.80;;;10.30;99.90;;;;;;5043282;28;20174;-78
2021/03/29 00:04:15;;;;;;;0.60;0.60;;;10.30;99.90;;;;;;5043142;28;20182;-77
2021/03/29 00:06:42;;;;;;;2.03;0.73;;;10.20;99.90;;;;;;5042528;28;20672;-78
2021/03/29 00:09:08;;;;;;;3.67;0.70;;;10.20;99.90;;;;;;5043425;28;20270;-78
2021/03/29 00:11:35;;;;;;;2.10;0.90;;;10.10;99.90;;;;;;5043003;28;20695;-78
2021/03/29 00:14:02;;;;;;;2.53;1.00;;;10.10;99.90;;;;;;5042939;28;20604;-78
2021/03/29 00:16:31;;;;;;;3.40;0.70;;;10.20;99.90;;;;;;5042985;28;20251;-78
2021/03/29 00:18:57;;;;;;;1.43;0.90;;;10.10;99.90;;;;;;5043676;28;20606;-78
2021/03/29 00:21:23;;;;;;;0.83;0.80;;;10.10;99.90;;;;;;5048156;28;20204;-78
2021/03/29 00:23:49;;;;;;;0.77;0.77;;;10.10;99.90;;;;;;5046822;28;20179;-78
2021/03/29 00:26:15;;;;;;;1.40;1.30;;;10.10;99.90;;;;;;5046791;28;20268;-77
2021/03/29 00:28:41;;;;;;;0.67;0.60;;;10.20;99.90;;;;;;5046002;28;20179;-78
2021/03/29 00:31:10;;;;;;;1.27;1.03;;;10.20;99.90;;;;;;5046407;28;20745;-78
2021/03/29 00:33:37;;;;;;;1.97;1.37;;;10.30;99.90;;;;;;5045925;28;20194;-78
2021/03/29 00:36:03;;;;;;;0.73;0.60;;;10.30;99.90;;;;;;5046498;28;20429;-77
2021/03/29 00:38:30;;;;;;;3.37;1.00;;;10.30;99.90;;;;;;5046645;28;20194;-77
2021/03/29 00:41:00;;;;;;;0.73;0.73;;;10.20;99.90;;;;;;5046394;28;20213;-77
2021/03/29 00:43:32;;;;;;;2.53;1.13;;;10.10;99.90;;;;;;5037843;28;20178;-78
2021/03/29 00:46:00;;;;;;;1.33;0.80;;;10.10;99.90;;;;;;5045986;28;20210;-78
2021/03/29 00:48:28;;;;;;;1.20;0.60;;;10.00;99.90;;;;;;5045837;28;20236;-78
2021/03/29 00:51:08;;;;;;;1.57;0.90;;;10.00;99.90;;;;;;5046272;28;20247;-78
2021/03/29 00:53:36;;;;;;;1.53;1.00;;;10.00;99.90;;;;;;5046241;28;20599;-78
2021/03/29 00:56:03;;;;;;;0.77;0.60;;;10.00;99.90;;;;;;5047228;28;20715;-78
2021/03/29 00:58:31;;;;;;;2.37;0.80;;;9.90;99.90;;;;;;5045640;28;20186;-78
2021/03/29 01:01:10;;;;;;;0.90;0.80;;;9.90;99.90;;;;;;5047348;28;20722;-78
2021/03/29 01:03:40;;;;;;;1.00;0.73;;;9.80;99.90;;;;;;5045585;28;20170;-78
2021/03/29 01:06:12;;;;;;;0.77;0.77;;;9.70;99.90;;;;;;5045808;28;20238;-78
2021/03/29 01:08:42;;;;;;;1.67;0.80;;;9.70;99.90;;;;;;5046943;28;20181;-78
2021/03/29 01:11:10;;;;;;;1.47;0.90;;;9.50;99.90;;;;;;5047050;28;20199;-78
2021/03/29 01:13:46;;;;;;;3.13;1.23;;;9.40;99.90;;;;;;5045443;28;20185;-78
2021/03/29 01:16:14;;;;;;;1.87;0.77;;;9.30;99.90;;;;;;5045656;28;20209;-78
2021/03/29 01:18:43;;;;;;;0.93;0.90;;;9.20;99.90;;;;;;5047319;28;20186;-79
2021/03/29 01:21:09;;;;;;;0.97;0.83;;;9.00;99.90;;;;;;5046166;28;20267;-77
2021/03/29 01:23:35;;;;;;;0.87;0.70;;;9.00;99.90;;;;;;5047125;28;20652;-78
2021/03/29 01:26:18;;;;;;;1.20;1.10;;;8.90;99.90;;;;;;5044825;28;21106;-78
2021/03/29 01:28:47;;;;;;;0.90;0.80;;;8.90;99.90;;;;;;5028460;28;20186;-78
2021/03/29 01:31:13;;;;;;;3.33;1.10;;;8.80;99.90;;;;;;5044878;28;20186;-77
2021/03/29 01:33:40;;;;;;;2.10;1.80;;;8.90;99.90;;;;;;5045596;28;20616;-78
2021/03/29 01:36:07;;;;;;;2.17;1.10;;;8.90;99.90;;;;;;5045888;28;20263;-79
2021/03/29 01:38:34;;;;;;;0.70;0.67;;;8.90;99.90;;;;;;5045703;28;20194;-78
2021/03/29 01:41:01;;;;;;;4.30;1.30;;;9.00;99.90;;;;;;5042005;28;20236;-78
2021/03/29 01:43:28;;;;;;;2.37;0.97;;;9.00;99.90;;;;;;5045465;28;20186;-78
2021/03/29 01:45:56;;;;;;;1.10;1.00;;;9.00;99.90;;;;;;5044818;28;20210;-78
2021/03/29 01:48:23;;;;;;;1.67;1.10;;;9.00;99.90;;;;;;5046486;28;20190;-78
2021/03/29 01:50:53;;;;;;;1.10;0.70;;;8.90;99.90;;;;;;5045301;28;20319;-79
2021/03/29 01:53:19;;;;;;;1.53;1.07;;;8.90;99.90;;;;;;5046427;28;20179;-78
2021/03/29 01:55:45;;;;;;;1.33;1.20;;;9.00;99.90;;;;;;5045187;28;20190;-78
2021/03/29 01:58:11;;;;;;;1.80;0.80;;;9.00;99.90;;;;;;5047611;28;20659;-78
2021/03/29 02:00:42;;;;;;;2.27;0.87;;;9.00;99.90;;;;;;5045447;28;20210;-78
2021/03/29 02:03:09;;;;;;;2.33;1.20;;;9.00;99.90;;;;;;5046277;28;20190;-78
2021/03/29 02:05:36;;;;;;;1.83;1.20;;;9.00;99.90;;;;;;5040352;28;20694;-79
2021/03/29 02:08:03;;;;;;;2.00;1.33;;;9.00;99.90;;;;;;5041234;28;20196;-78
2021/03/29 02:10:37;;;;;;;2.60;1.60;;;8.90;99.90;;;;;;5043055;28;20246;-79
2021/03/29 02:13:21;;;;;;;1.40;1.10;;;8.90;99.90;;;;;;5044454;28;20253;-78
2021/03/29 02:15:51;;;;;;;4.47;1.60;;;8.90;99.90;;;;;;5037111;28;20184;-78
2021/03/29 02:18:26;;;;;;;3.70;1.37;;;8.90;99.90;;;;;;5044537;28;20891;-78
2021/03/29 02:21:03;;;;;;;2.37;1.20;;;8.80;99.90;;;;;;5037369;28;20303;-77
2021/03/29 02:23:30;;;;;;;2.03;1.00;;;8.80;99.90;;;;;;5044595;28;20261;-79
2021/03/29 02:25:58;;;;;;;2.30;1.33;;;8.70;99.90;;;;;;5044783;28;20301;-78
2021/03/29 02:28:24;;;;;;;2.23;1.33;;;8.80;99.90;;;;;;5044201;28;20655;-78
2021/03/29 02:30:50;;;;;;;2.47;1.20;;;8.70;99.90;;;;;;5044756;28;20193;-78
2021/03/29 02:33:17;;;;;;;1.00;0.93;;;8.70;99.90;;;;;;5044200;28;20190;-78
2021/03/29 02:35:44;;;;;;;1.63;0.97;;;8.70;99.90;;;;;;5044232;28;20182;-78
2021/03/29 02:38:15;;;;;;;1.10;0.70;;;8.70;99.90;;;;;;5045724;28;20190;-78
2021/03/29 02:40:42;;;;;;;1.40;1.07;;;8.90;99.90;;;;;;5046433;28;20682;-79
2021/03/29 02:43:10;;;;;;;1.67;0.90;;;8.90;99.90;;;;;;5042657;28;20187;-78
2021/03/29 02:45:42;;;;;;;0.80;0.80;;;9.10;99.90;;;;;;5045522;28;20218;-78
2021/03/29 02:48:12;;;;;;;1.47;0.90;;;9.20;99.90;;;;;;5045396;28;20184;-78
2021/03/29 02:50:42;;;;;;;4.13;1.33;;;9.20;99.90;;;;;;5044138;28;20186;-79
2021/03/29 02:53:12;;;;;;;1.87;1.00;;;9.40;99.90;;;;;;5043865;28;20183;-77
2021/03/29 02:55:38;;;;;;;0.90;0.90;;;9.60;99.90;;;;;;5043963;28;20229;-78
2021/03/29 02:58:05;;;;;;;1.47;0.70;;;9.70;99.90;;;;;;5045084;28;20192;-78
2021/03/29 03:00:33;;;;;;;2.57;0.93;;;9.90;99.90;;;;;;5044610;28;20206;-78
2021/03/29 03:03:01;;;;;;;1.57;0.97;;;9.90;99.90;;;;;;5043351;28;20189;-78
2021/03/29 03:05:30;;;;;;;1.57;0.90;;;9.90;99.90;;;;;;5044285;28;20251;-78
2021/03/29 03:07:57;;;;;;;2.17;0.97;;;10.00;99.90;;;;;;5035745;28;20206;-78
2021/03/29 03:10:26;;;;;;;1.50;0.80;;;10.00;99.90;;;;;;5045687;28;20185;-78
2021/03/29 03:12:52;;;;;;;2.53;0.90;;;10.10;99.90;;;;;;5042615;28;20182;-79
2021/03/29 03:15:24;;;;;;;1.73;1.33;;;10.00;99.90;;;;;;5045182;28;20182;-78
2021/03/29 03:17:52;;;;;;;0.70;0.70;;;10.00;99.90;;;;;;5043399;28;20837;-78
2021/03/29 03:20:18;;;;;;;2.70;1.07;;;9.90;99.90;;;;;;5045723;28;21041;-79
2021/03/29 03:23:11;;;;;;;4.17;1.37;;;9.90;99.90;;;;;;5045215;28;20236;-78
2021/03/29 03:25:43;;;;;;;2.27;1.10;;;9.80;99.90;;;;;;5043832;28;20186;-79
2021/03/29 03:28:12;;;;;;;1.03;0.60;;;9.70;99.90;;;;;;5043225;28;20285;-79
2021/03/29 03:30:43;;;;;;;1.00;0.90;;;9.70;99.90;;;;;;5044313;28;20596;-79
2021/03/29 03:33:10;;;;;;;1.50;0.70;;;9.70;99.90;;;;;;5043089;28;20256;-78
2021/03/29 03:35:37;;;;;;;0.70;0.70;;;9.50;99.90;;;;;;5043096;28;20190;-78
2021/03/29 03:38:09;;;;;;;1.90;1.10;;;9.50;99.90;;;;;;5042701;28;20197;-78
2021/03/29 03:40:36;;;;;;;1.40;0.77;;;9.50;99.90;;;;;;5043043;28;20202;-78
2021/03/29 03:43:04;;;;;;;0.90;0.90;;;9.40;99.90;;;;;;5042882;28;20174;-79
2021/03/29 03:45:37;;;;;;;2.10;1.10;;;9.30;99.90;;;;;;5038578;28;21057;-78
2021/03/29 03:48:05;;;;;;;2.40;0.97;;;9.20;99.90;;;;;;5041747;28;20197;-78
2021/03/29 03:50:31;;;;;;;1.50;0.97;;;9.10;99.90;;;;;;5044238;28;20524;-78
2021/03/29 03:52:58;;;;;;;0.53;0.53;;;9.00;99.90;;;;;;5043211;28;20273;-78
2021/03/29 03:55:24;;;;;;;1.90;1.00;;;8.80;99.90;;;;;;5046712;28;20381;-78
2021/03/29 03:57:51;;;;;;;1.90;0.73;;;8.80;99.90;;;;;;5063103;28;20297;-78
2021/03/29 04:00:19;;;;;;;2.57;1.20;;;8.70;99.90;;;;;;5047404;28;20210;-79
2021/03/29 04:02:47;;;;;;;1.93;0.97;;;8.70;99.90;;;;;;5046798;28;20671;-78
2021/03/29 04:05:14;;;;;;;1.27;0.97;;;8.60;99.90;;;;;;5047618;28;20227;-78
2021/03/29 04:07:40;;;;;;;2.40;1.40;;;8.60;99.90;;;;;;5048305;28;20209;-79
2021/03/29 04:12:36;;;;;;;3.63;1.10;;;8.50;99.90;;;;;;5048185;28;20187;-78
2021/03/29 04:15:03;;;;;;;1.03;0.73;;;8.50;99.90;;;;;;5047581;28;20281;-78
2021/03/29 04:17:29;;;;;;;2.33;1.10;;;8.50;99.90;;;;;;5047947;28;21165;-78
2021/03/29 04:19:54;;;;;;;7.53;1.87;;;8.50;99.90;;;;;;5047662;28;20310;-79
2021/03/29 04:22:20;;;;;;;2.03;1.33;;;8.60;99.90;;;;;;5046989;28;20531;-78
2021/03/29 04:24:45;;;;;;;1.37;1.13;;;8.80;99.90;;;;;;5048317;28;20178;-78
2021/03/29 04:27:11;;;;;;;3.30;1.17;;;8.90;99.90;;;;;;5048012;28;20305;-79
2021/03/29 04:29:37;;;;;;;1.10;1.00;;;8.90;99.90;;;;;;5047049;28;20308;-78
2021/03/29 04:32:03;;;;;;;0.90;0.80;;;8.90;99.90;;;;;;5048371;28;20682;-79
2021/03/29 04:34:28;;;;;;;2.00;1.13;;;9.00;99.90;;;;;;5046667;28;20192;-78
2021/03/29 04:36:54;;;;;;;1.13;1.03;;;8.90;99.90;;;;;;5046886;28;20576;-78
2021/03/29 04:39:20;;;;;;;2.03;0.80;;;9.00;99.90;;;;;;5046745;28;20213;-79
2021/03/29 04:41:45;;;;;;;2.37;1.27;;;9.00;99.90;;;;;;5048115;28;20170;-79
2021/03/29 04:44:11;;;;;;;1.13;0.70;;;8.90;99.90;;;;;;5046313;28;20178;-78
2021/03/29 04:46:37;;;;;;;0.83;0.80;;;9.00;99.90;;;;;;5046285;28;20284;-79
2021/03/29 04:49:03;;;;;;;1.97;0.97;;;9.00;99.90;;;;;;5046564;28;20606;-78
2021/03/29 04:51:29;;;;;;;1.00;0.80;;;9.00;99.90;;;;;;5046606;28;20183;-78
2021/03/29 04:53:55;;;;;;;1.30;1.20;;;9.00;99.90;;;;;;5047840;28;20181;-78
2021/03/29 04:56:20;;;;;;;1.53;0.70;;;9.00;99.90;;;;;;5047809;28;20198;-78
2021/03/29 04:58:46;;;;;;;3.03;1.23;;;8.90;99.90;;;;;;5046502;28;20198;-78
2021/03/29 05:01:11;;;;;;;4.43;1.13;;;8.90;99.90;;;;;;5046417;28;20209;-78
2021/03/29 05:03:38;;;;;;;1.00;0.90;;;8.80;99.90;;;;;;5045968;28;20209;-78
2021/03/29 05:06:04;;;;;;;1.33;0.97;;;8.70;99.90;;;;;;5045168;28;20210;-78
2021/03/29 05:08:29;;;;;;;2.40;1.03;;;8.60;99.90;;;;;;5045969;28;20179;-78
2021/03/29 05:10:55;;;;;;;1.47;0.77;;;8.60;99.90;;;;;;5046417;28;20681;-78
2021/03/29 05:13:21;;;;;;;1.07;0.83;;;8.40;99.90;;;;;;5046330;28;20317;-78
2021/03/29 05:15:46;;;;;;;0.73;0.70;;;8.40;99.90;;;;;;5046181;28;20265;-78
2021/03/29 05:18:13;;;;;;;1.10;1.00;;;8.30;99.90;;;;;;5046025;28;20193;-79
2021/03/29 05:20:39;;;;;;;0.80;0.60;;;8.30;99.90;;;;;;5045707;28;20737;-78
2021/03/29 05:23:04;;;;;;;0.90;0.80;;;8.30;99.90;;;;;;5047154;28;20182;-78
2021/03/29 05:25:30;;;;;;;1.83;0.80;;;8.40;99.90;;;;;;5045821;28;20182;-78
2021/03/29 05:27:55;;;;;;;1.70;1.10;;;8.40;99.90;;;;;;5045576;28;20587;-78
2021/03/29 05:30:21;;;;;;;0.80;0.80;;;8.50;99.90;;;;;;5045885;28;20851;-79
2021/03/29 05:32:47;;;;;;;1.20;0.70;;;8.70;99.90;;;;;;5046640;28;20226;-78
2021/03/29 05:35:13;;;;;;;1.83;0.87;;;8.80;99.90;;;;;;5045997;28;20221;-78
2021/03/29 05:37:39;;;;;;;2.87;1.27;;;8.90;99.90;;;;;;5046479;28;20209;-77
2021/03/29 05:40:05;;;;;;;1.87;0.73;;;9.00;99.90;;;;;;5045452;28;20308;-78
2021/03/29 05:42:31;;;;;;;1.30;1.20;;;9.10;99.90;;;;;;5046108;28;20279;-78
2021/03/29 05:45:08;;;;;;;4.30;1.27;;;9.30;99.90;;;;;;5045498;28;20194;-78
2021/03/29 05:47:35;;;;;;;1.97;0.93;;;9.40;99.90;;;;;;5044938;28;20218;-77
2021/03/29 05:50:04;;;;;;;2.43;1.17;;;9.50;99.90;;;;;;5037942;28;20190;-78
2021/03/29 05:52:30;;;;;;;1.00;0.90;;;9.60;99.90;;;;;;5045111;28;20209;-78
2021/03/29 05:54:57;;;;;;;3.27;1.20;;;9.70;99.90;;;;;;5041135;28;20228;-77
2021/03/29 05:57:24;;;;;;;4.00;1.10;;;9.80;99.90;;;;;;5044447;28;20604;-78
2021/03/29 05:59:50;;;;;;;2.03;0.70;;;9.80;99.90;;;;;;5046194;28;20823;-78
2021/03/29 06:02:30;;;;;;;2.80;0.73;;;10.00;99.90;;;;;;5045286;28;20260;-78
2021/03/29 06:04:56;;;;;;;0.93;0.90;;;10.00;99.90;;;;;;5037490;28;20213;-79
2021/03/29 06:07:26;;;;;;;0.73;0.67;;;10.00;99.90;;;;;;5044328;28;20240;-78
2021/03/29 06:09:54;;;;;;;1.43;0.77;;;10.20;99.90;;;;;;5043334;28;20281;-78
2021/03/29 06:12:21;;;;;;;3.03;1.30;;;10.20;99.90;;;;;;5043195;28;20682;-77
2021/03/29 06:14:58;;;;;;;2.17;1.33;;;10.30;99.90;;;;;;5043937;28;20233;-78
2021/03/29 06:17:23;;;;;;;1.10;1.00;;;10.50;99.90;;;;;;5044408;28;20212;-78
2021/03/29 06:19:53;;;;;;;3.17;0.90;;;10.50;99.90;;;;;;5043358;28;20214;-78
2021/03/29 06:22:25;;;;;;;2.17;1.13;;;10.60;99.90;;;;;;5043981;28;20202;-78
2021/03/29 06:24:55;;;;;;;5.53;1.83;;;10.60;99.90;;;;;;5043788;28;20178;-78
2021/03/29 06:27:41;;;;;;;1.87;1.10;;;10.70;99.90;;;;;;5044507;28;20198;-78
2021/03/29 06:30:19;;;;;;;1.23;0.73;;;10.80;99.90;;;;;;5044466;28;20186;-77
2021/03/29 06:33:04;;;;;;;1.90;1.13;;;10.90;99.90;;;;;;5043839;28;21163;-78
2021/03/29 06:35:37;;;;;;;1.73;1.37;;;10.90;99.90;;;;;;5043847;28;20214;-78
2021/03/29 06:38:25;;;;;;;2.47;1.10;;;11.00;99.90;;;;;;5043990;28;20190;-78
2021/03/29 06:40:51;;;;;;;3.53;1.07;;;11.00;99.90;;;;;;5043992;28;20221;-78
2021/03/29 06:43:28;;;;;;;0.93;0.80;;;11.00;99.90;;;;;;5043331;28;20192;-78
2021/03/29 06:46:06;;;;;;;0.80;0.80;;;11.00;99.90;;;;;;5043964;28;20193;-78
2021/03/29 06:48:36;;;;;;;1.27;1.03;;;10.90;99.90;;;;;;5043632;28;20177;-78
2021/03/29 06:51:08;;;;;;;0.60;0.60;;;11.00;99.90;;;;;;5033947;28;20217;-78
2021/03/29 06:53:34;;;;;;;1.43;0.80;;;11.00;99.90;;;;;;5041901;28;20261;-78
2021/03/29 06:56:32;;;;;;;1.90;0.83;;;10.90;99.90;;;;;;5043504;28;20213;-78
2021/03/29 06:59:13;;;;;;;1.50;1.03;;;10.90;99.90;;;;;;5045124;28;20183;-77
2021/03/29 07:01:55;;;;;;;0.83;0.70;;;10.90;99.90;;;;;;5045016;28;20235;-77
2021/03/29 07:04:23;;;;;;;2.10;0.80;;;11.00;99.90;;;;;;5044666;28;20171;-77
2021/03/29 07:06:49;;;;;;;1.80;0.90;;;11.00;99.90;;;;;;5043979;28;20198;-77
2021/03/29 07:09:16;;;;;;;1.13;0.73;;;11.00;99.90;;;;;;5045185;28;20215;-77
2021/03/29 07:11:43;;;;;;;1.97;0.93;;;11.10;99.90;;;;;;5045110;28;20174;-78
2021/03/29 07:14:09;;;;;;;1.33;0.93;;;11.20;99.90;;;;;;5043966;28;20189;-77
2021/03/29 07:16:35;;;;;;;3.60;1.17;;;11.20;99.90;;;;;;5044524;28;20193;-78
2021/03/29 07:19:04;;;;;;;4.40;0.77;;;11.40;99.90;;;;;;5045044;28;20265;-77
2021/03/29 07:21:30;;;;;;;5.50;1.00;;;11.60;99.90;;;;;;5044922;28;20178;-78
2021/03/29 07:24:07;;;;;;;2.10;1.13;;;11.60;99.90;;;;;;5043705;28;20271;-79
2021/03/29 07:26:54;;;;;;;1.13;0.93;;;11.70;99.90;;;;;;5044300;28;20204;-76
2021/03/29 07:29:32;;;;;;;2.53;0.93;;;11.70;99.90;;;;;;5044609;28;20908;-79
2021/03/29 07:32:00;;;;;;;0.97;0.70;;;11.80;99.90;;;;;;5049108;28;20190;-76
2021/03/29 07:34:50;;;;;;;3.90;1.07;;;11.90;99.90;;;;;;5048306;28;20640;-78
2021/03/29 07:37:31;;;;;;;3.53;1.77;;;11.90;99.90;;;;;;5048980;28;20572;-78
2021/03/29 07:39:58;;;;;;;0.90;0.77;;;12.00;99.90;;;;;;5048188;28;20225;-78
2021/03/29 07:42:24;;;;;;;1.10;0.97;;;12.00;99.90;;;;;;5046688;28;20324;-78
2021/03/29 07:44:55;;;;;;;2.47;1.60;;;12.10;99.90;;;;;;5047409;28;20190;-77
2021/03/29 07:47:46;;;;;;;1.37;0.70;;;12.10;99.90;;;;;;5047711;28;20695;-77
2021/03/29 07:50:24;;;;;;;2.23;1.30;;;12.10;99.90;;;;;;5048434;28;20663;-77
2021/03/29 07:52:53;;;;;;;1.13;0.80;;;12.20;99.90;;;;;;5047259;28;20204;-77
2021/03/29 07:55:20;;;;;;;1.20;1.10;;;12.20;99.90;;;;;;5047927;28;20214;-78
2021/03/29 07:57:49;;;;;;;1.90;0.88;;;12.30;99.90;;;;;;5046747;28;20206;-77
2021/03/29 08:00:24;;;;;;;2.93;1.13;;;12.30;99.90;;;;;;5047694;28;20198;-77
2021/03/29 08:03:01;;;;;;;1.17;0.77;;;12.50;99.90;;;;;;5047886;28;20190;-77
2021/03/29 08:05:44;;;;;;;1.08;0.80;;;12.60;99.90;;;;;;5046066;28;20261;-76
2021/03/29 08:08:30;;;;;;;0.82;0.68;;;12.70;99.90;;;;;;5046503;28;20174;-76
2021/03/29 08:10:56;;;;;;;1.35;0.82;;;12.80;99.90;;;;;;5047418;28;20189;-76
2021/03/29 08:13:47;;;;;;;3.13;1.05;;;13.00;99.90;;;;;;5046819;28;20235;-76
2021/03/29 08:16:17;;;;;;;1.70;0.98;;;13.00;99.90;;;;;;5046015;28;20207;-76
2021/03/29 08:19:18;;;;;;;2.72;1.38;;;12.90;99.90;;;;;;5047023;28;20181;-76
2021/03/29 08:21:51;;;;;;;4.90;1.50;;;13.00;99.90;;;;;;5048102;28;20239;-77
2021/03/29 08:24:31;;;;;;;1.15;1.00;;;13.10;99.90;;;;;;5045007;28;20268;-76
2021/03/29 08:27:03;;;;;;;0.70;0.70;;;13.10;99.90;;;;;;5047596;28;20209;-77
2021/03/29 08:29:36;;;;;;;1.90;0.98;;;13.00;99.90;;;;;;5047050;28;20261;-77
2021/03/29 08:32:15;;;;;;;5.10;1.52;;;13.00;99.90;;;;;;5045874;28;20193;-79
2021/03/29 08:35:05;;;;;;;4.03;1.10;;;13.00;99.90;;;;;;5047159;28;20210;-77
2021/03/29 08:37:47;;;;;;;1.93;1.10;;;13.00;99.90;;;;;;5047564;28;20205;-77
2021/03/29 08:40:27;;;;;;;2.10;1.42;;;13.20;99.90;;;;;;5046464;28;20202;-77
2021/03/29 08:43:01;;;;;;;3.25;1.15;;;13.40;99.90;;;;;;5047866;28;20235;-77
2021/03/29 08:45:28;;;;;;;4.38;1.20;;;13.60;99.90;;;;;;5048036;28;20185;-78
2021/03/29 08:47:56;;;;;;;1.70;0.80;;;13.80;99.90;;;;;;5047326;28;20279;-78
2021/03/29 08:50:30;;;;;;;2.58;1.05;;;13.80;99.90;;;;;;5048250;28;20656;-78
2021/03/29 08:53:02;;;;;;;2.03;1.13;;;13.90;99.90;;;;;;5046967;28;20182;-77
2021/03/29 08:55:33;;;;;;;1.35;0.88;;;14.00;99.90;;;;;;5038619;28;20609;-78
2021/03/29 08:57:59;;;;;;;1.13;0.90;;;14.20;99.90;;;;;;5048742;28;20198;-78
2021/03/29 09:00:30;;;;;;;1.85;1.00;;;14.20;99.90;;;;;;5048648;28;20206;-76
2021/03/29 09:02:56;;;;;;;3.00;1.35;;;14.30;99.90;;;;;;5047669;28;20667;-79
2021/03/29 09:05:24;;;;;;;0.95;0.75;;;14.20;99.90;;;;;;5046772;28;20174;-79
2021/03/29 09:07:53;;;;;;;1.48;1.00;;;14.10;99.90;;;;;;5047838;28;20286;-79
2021/03/29 09:10:26;;;;;;;1.55;1.27;;;14.10;99.90;;;;;;5046060;28;20306;-79
2021/03/29 09:12:59;;;;;;;1.30;1.08;;;14.10;99.90;;;;;;5046278;28;20572;-79
2021/03/29 09:15:30;;;;;;;1.48;1.00;;;14.20;99.90;;;;;;5046480;28;20265;-79
2021/03/29 09:17:55;;;;;;;1.15;1.10;;;14.20;99.90;;;;;;5046206;28;20210;-79
2021/03/29 09:20:23;;;;;;;7.25;1.35;;;14.50;99.90;;;;;;5041624;28;20213;-78
2021/03/29 09:22:49;;;;;;;1.73;0.98;;;14.80;99.90;;;;;;5046017;28;20224;-78
2021/03/29 09:25:24;;;;;;;1.30;1.00;;;14.80;99.90;;;;;;5039989;28;20208;-78
2021/03/29 09:28:10;;;;;;;1.70;1.10;;;14.80;99.90;;;;;;5045495;28;20581;-78
2021/03/29 09:30:35;;;;;;;1.65;0.93;;;14.70;99.90;;;;;;5045653;28;20631;-79
2021/03/29 09:33:01;;;;;;;4.00;1.33;;;14.60;99.90;;;;;;5046709;28;20186;-79
2021/03/29 09:35:27;;;;;;;4.05;1.13;;;14.80;99.90;;;;;;5045708;28;20797;-78
2021/03/29 09:37:53;;;;;;;3.50;1.27;;;14.90;99.90;;;;;;5046033;28;20667;-79
2021/03/29 09:40:19;;;;;;;1.45;1.02;;;15.00;99.90;;;;;;5046943;28;21005;-79
2021/03/29 09:42:47;;;;;;;1.98;1.17;;;15.00;99.90;;;;;;5045882;28;20893;-78
2021/03/29 09:45:25;;;;;;;6.03;1.10;;;15.20;99.90;;;;;;5045372;28;20261;-79
2021/03/29 09:48:08;;;;;;;1.33;0.70;;;15.30;99.90;;;;;;5044917;28;20300;-77
2021/03/29 09:50:38;;;;;;;6.43;1.65;;;15.40;99.90;;;;;;5045865;28;20178;-76
2021/03/29 09:53:19;;;;;;;1.60;0.95;;;15.40;99.90;;;;;;5042643;28;20233;-77
2021/03/29 09:55:56;;;;;;;2.22;0.80;;;15.60;99.90;;;;;;5045421;28;20639;-77
2021/03/29 09:58:30;;;;;;;2.17;1.20;;;15.60;99.90;;;;;;5047599;28;20205;-77
2021/03/29 10:00:59;;;;;;;1.67;1.30;;;15.80;99.90;;;;;;5045535;28;20210;-77
2021/03/29 10:03:25;;;;;;;1.30;0.85;;;15.90;99.90;;;;;;5046387;28;20174;-77
2021/03/29 10:05:52;;;;;;;1.20;1.10;;;16.00;99.90;;;;;;5044945;28;20194;-77
2021/03/29 10:08:33;;;;;;;1.30;0.85;;;15.90;99.90;;;;;;5045874;28;20185;-78
2021/03/29 10:11:03;;;;;;;1.83;0.80;;;15.80;99.90;;;;;;5044512;28;20209;-76
2021/03/29 10:13:41;;;;;;;1.30;0.80;;;15.90;99.90;;;;;;5046706;28;20251;-77
2021/03/29 10:16:27;;;;;;;1.55;1.05;;;16.00;99.90;;;;;;5045400;28;20210;-77
2021/03/29 10:19:17;;;;;;;1.85;1.35;;;16.20;99.90;;;;;;5046387;28;20277;-77
2021/03/29 10:22:06;;;;;;;1.38;1.10;;;16.30;99.90;;;;;;5044726;28;20178;-76
2021/03/29 10:24:34;;;;;;;1.27;0.80;;;16.20;99.90;;;;;;5045129;28;20648;-76
2021/03/29 10:27:07;;;;;;;1.75;0.93;;;16.20;99.90;;;;;;5044786;28;20844;-77
2021/03/29 10:29:40;;;;;;;2.63;1.30;;;16.30;99.90;;;;;;5046682;28;20178;-79
2021/03/29 10:32:32;;;;;;;1.67;0.77;;;16.40;99.90;;;;;;5045514;28;20255;-78
2021/03/29 10:34:58;;;;;;;1.25;0.88;;;16.50;99.90;;;;;;5046416;28;20734;-78
2021/03/29 10:37:25;;;;;;;2.70;0.80;;;16.80;99.90;;;;;;5046106;28;20229;-79
2021/03/29 10:39:53;;;;;;;2.25;1.40;;;16.80;99.90;;;;;;5046114;28;20209;-78
2021/03/29 10:42:21;;;;;;;1.58;0.90;;;17.00;99.90;;;;;;5041141;28;20292;-79
2021/03/29 10:44:48;;;;;;;1.48;0.93;;;17.20;99.90;;;;;;5044627;28;20549;-79
2021/03/29 10:47:14;;;;;;;1.80;1.13;;;17.20;99.90;;;;;;5046003;28;20589;-78
2021/03/29 10:49:40;;;;;;;2.72;1.20;;;17.20;99.90;;;;;;5045610;28;20182;-78
2021/03/29 10:52:07;;;;;;;1.55;1.15;;;17.30;99.90;;;;;;5047534;28;20189;-78
2021/03/29 10:54:33;;;;;;;0.80;0.80;;;17.20;99.90;;;;;;5046132;28;20174;-78
2021/03/29 10:56:58;;;;;;;1.48;1.35;;;17.20;99.90;;;;;;5045525;28;20213;-78
2021/03/29 10:59:24;;;;;;;0.90;0.70;;;17.30;99.90;;;;;;5045476;28;20189;-78
2021/03/29 11:01:50;;;;;;;2.50;1.00;;;17.30;99.90;;;;;;5044940;28;20209;-78
2021/03/29 11:04:15;;;;;;;0.98;0.63;;;17.50;99.90;;;;;;5045361;28;20182;-79
2021/03/29 11:06:41;;;;;;;3.72;1.35;;;17.70;99.90;;;;;;5044417;28;20208;-79
2021/03/29 11:09:07;;;;;;;1.13;0.80;;;17.40;99.90;;;;;;5047060;28;20543;-78
2021/03/29 11:11:33;;;;;;;2.55;1.42;;;17.50;99.90;;;;;;5044626;28;20603;-78
2021/03/29 11:13:59;;;;;;;0.70;0.52;;;17.50;99.90;;;;;;5045661;28;20188;-78
2021/03/29 11:16:25;;;;;;;2.22;0.90;;;17.60;99.90;;;;;;5045777;28;20265;-78
2021/03/29 11:18:51;;;;;;;3.00;0.70;;;17.60;99.90;;;;;;5045367;28;20216;-79
2021/03/29 11:21:17;;;;;;;1.40;0.70;;;17.70;99.90;;;;;;5044791;28;20202;-78
2021/03/29 11:23:43;;;;;;;1.15;0.88;;;17.80;99.90;;;;;;5044920;28;20224;-78
2021/03/29 11:26:08;;;;;;;0.95;0.70;;;17.80;99.90;;;;;;5044463;28;20687;-78
2021/03/29 11:28:34;;;;;;;1.02;0.73;;;18.00;99.90;;;;;;5044978;28;20199;-79
2021/03/29 11:31:00;;;;;;;1.45;0.60;;;18.00;99.90;;;;;;5044900;28;20182;-79
2021/03/29 11:33:26;;;;;;;1.83;0.95;;;18.20;99.90;;;;;;5044587;28;20194;-78
2021/03/29 11:35:51;;;;;;;3.15;0.95;;;18.20;98.60;;;;;;5044855;28;20327;-78
2021/03/29 11:38:17;;;;;;;0.95;0.77;;;18.20;99.80;;;;;;5042576;28;20228;-79
2021/03/29 11:40:43;;;;;;;2.40;0.70;;;18.10;99.40;;;;;;5042423;28;20210;-78
2021/03/29 11:43:09;;;;;;;1.05;0.70;;;18.20;99.00;;;;;;5042389;28;20255;-78
2021/03/29 11:45:34;;;;;;;1.27;0.65;;;18.30;97.00;;;;;;5044012;28;20189;-78
2021/03/29 11:48:00;;;;;;;2.38;1.27;;;18.30;97.20;;;;;;5043783;28;20300;-79
2021/03/29 11:50:26;;;;;;;1.70;0.80;;;18.40;97.80;;;;;;5044096;28;20187;-78
2021/03/29 11:52:52;;;;;;;1.30;0.90;;;18.40;96.80;;;;;;5045550;28;20186;-78
2021/03/29 11:55:18;;;;;;;2.38;0.63;;;18.50;96.80;;;;;;5044496;28;20194;-78
2021/03/29 11:57:44;;;;;;;2.08;0.73;;;18.70;97.40;;;;;;5044386;28;20198;-78
2021/03/29 12:00:20;;;;;;;2.58;0.95;;;18.40;94.90;;;;;;5043773;28;20305;-78
2021/03/29 12:02:58;;;;;;;1.65;1.10;;;18.50;95.40;;;;;;5045269;28;20174;-78
2021/03/29 12:05:29;;;;;;;2.05;1.42;;;18.40;95.30;;;;;;5045983;28;20235;-79
2021/03/29 12:13:17;;;;;;;2.15;0.70;;;18.60;94.20;;;;;;5045533;28;20184;-78
2021/03/29 12:15:48;;;;;;;1.20;0.80;;;18.70;94.30;;;;;;5047494;28;20178;-78
2021/03/29 12:18:16;;;;;;;1.52;0.70;;;18.80;93.90;;;;;;5049542;28;20737;-78
2021/03/29 12:20:41;;;;;;;1.17;1.02;;;18.80;93.10;;;;;;5049472;28;20683;-78
2021/03/29 12:23:10;;;;;;;0.57;0.57;;;18.80;93.00;;;;;;5048655;28;20187;-77
2021/03/29 12:25:38;;;;;;;2.50;1.00;;;18.80;93.00;;;;;;5049723;28;20186;-78
2021/03/29 12:28:07;;;;;;;1.85;0.80;;;18.90;92.30;;;;;;5049792;28;20232;-78
2021/03/29 12:30:33;;;;;;;3.50;0.80;;;18.90;92.60;;;;;;5049557;28;20174;-78
2021/03/29 12:32:59;;;;;;;0.88;0.60;;;19.10;93.20;;;;;;5048395;28;20674;-78
2021/03/29 12:35:25;;;;;;;0.52;0.50;;;19.10;92.30;;;;;;5049316;28;20194;-78
2021/03/29 12:37:53;;;;;;;1.33;0.70;;;19.20;91.90;;;;;;5048991;28;20209;-78
2021/03/29 12:40:36;;;;;;;2.83;0.80;;;19.30;91.10;;;;;;5047647;28;20709;-77
2021/03/29 12:43:06;;;;;;;1.27;0.90;;;19.40;91.50;;;;;;5048229;28;20174;-79
2021/03/29 12:45:35;;;;;;;1.95;1.10;;;19.20;91.60;;;;;;5048974;28;20189;-77
2021/03/29 12:48:03;;;;;;;2.53;1.10;;;19.20;91.50;;;;;;5049131;28;20621;-78
2021/03/29 12:50:29;;;;;;;4.93;0.93;;;19.30;91.00;;;;;;5049600;28;20182;-77
2021/03/29 12:52:55;;;;;;;1.05;0.60;;;19.30;90.70;;;;;;5049275;28;20182;-77
2021/03/29 12:55:24;;;;;;;1.15;0.80;;;19.20;91.40;;;;;;5049099;28;20178;-78
2021/03/29 12:57:54;;;;;;;2.03;1.00;;;19.30;91.10;;;;;;5049187;28;20237;-78
2021/03/29 13:00:22;;;;;;;0.77;0.60;;;19.40;90.60;;;;;;5049662;28;20695;-78
2021/03/29 13:02:49;;;;;;;0.68;0.50;;;19.30;90.50;;;;;;5049076;28;20182;-78
2021/03/29 13:05:19;;;;;;;1.95;0.50;;;19.50;91.70;;;;;;5048374;28;20228;-79
2021/03/29 13:07:54;;;;;;;2.28;0.40;;;19.50;90.70;;;;;;5049272;28;20198;-78
2021/03/29 13:12:59;;;;;;;1.35;0.82;;;19.60;90.50;;;;;;5049038;28;20196;-78
2021/03/29 13:15:25;;;;;;;0.80;0.55;;;19.50;90.40;;;;;;5048355;28;20680;-78